sensor_id;sensor_type;location;lat;lon;timestamp;pressure;altitude;pressure_sealevel;temperature
20490;BMP280;10403;54.092;12.122;2022-07-22T00:00:15;101746.88;;;23.83
20490;BMP280;10403;54.092;12.122;2022-07-22T00:02:43;101745.88;;;23.86
20490;BMP280;10403;54.092;12.122;2022-07-22T00:05:10;101740.59;;;23.84
20490;BMP280;10403;54.092;12.122;2022-07-22T00:07:39;101744.22;;;23.83
20490;BMP280;10403;54.092;12.122;2022-07-22T00:10:09;101737.13;;;23.82
20490;BMP280;10403;54.092;12.122;2022-07-22T00:12:39;101743.44;;;23.81
20490;BMP280;10403;54.092;12.122;2022-07-22T00:15:08;101740.81;;;23.80
20490;BMP280;10403;54.092;12.122;2022-07-22T00:17:35;101735.47;;;23.80
20490;BMP280;10403;54.092;12.122;2022-07-22T00:20:07;101739.13;;;23.79
20490;BMP280;10403;54.092;12.122;2022-07-22T00:22:35;101740.81;;;23.80
20490;BMP280;10403;54.092;12.122;2022-07-22T00:25:04;101735.59;;;23.78
20490;BMP280;10403;54.092;12.122;2022-07-22T00:27:32;101737.41;;;23.78
20490;BMP280;10403;54.092;12.122;2022-07-22T00:29:59;101743.69;;;23.77
20490;BMP280;10403;54.092;12.122;2022-07-22T00:32:27;101741.00;;;23.77
20490;BMP280;10403;54.092;12.122;2022-07-22T00:34:54;101748.09;;;23.78
20490;BMP280;10403;54.092;12.122;2022-07-22T00:37:22;101743.50;;;23.80
20490;BMP280;10403;54.092;12.122;2022-07-22T00:39:49;101749.72;;;23.80
20490;BMP280;10403;54.092;12.122;2022-07-22T00:42:17;101746.16;;;23.80
20490;BMP280;10403;54.092;12.122;2022-07-22T00:44:49;101750.69;;;23.79
20490;BMP280;10403;54.092;12.122;2022-07-22T00:47:16;101748.94;;;23.78
20490;BMP280;10403;54.092;12.122;2022-07-22T00:49:43;101740.81;;;23.80
20490;BMP280;10403;54.092;12.122;2022-07-22T00:52:12;101734.66;;;23.79
20490;BMP280;10403;54.092;12.122;2022-07-22T00:54:39;101737.41;;;23.78
20490;BMP280;10403;54.092;12.122;2022-07-22T00:57:06;101741.69;;;23.80
20490;BMP280;10403;54.092;12.122;2022-07-22T00:59:33;101740.94;;;23.78
20490;BMP280;10403;54.092;12.122;2022-07-22T01:02:01;101735.59;;;23.78
20490;BMP280;10403;54.092;12.122;2022-07-22T01:04:28;101736.63;;;23.76
20490;BMP280;10403;54.092;12.122;2022-07-22T01:06:55;101735.75;;;23.75
20490;BMP280;10403;54.092;12.122;2022-07-22T01:09:23;101735.81;;;23.74
20490;BMP280;10403;54.092;12.122;2022-07-22T01:11:50;101730.47;;;23.74
20490;BMP280;10403;54.092;12.122;2022-07-22T01:14:17;101732.28;;;23.73
20490;BMP280;10403;54.092;12.122;2022-07-22T01:16:45;101734.09;;;23.73
20490;BMP280;10403;54.092;12.122;2022-07-22T01:19:16;101731.50;;;23.71
20490;BMP280;10403;54.092;12.122;2022-07-22T01:21:43;101736.84;;;23.71
20490;BMP280;10403;54.092;12.122;2022-07-22T01:24:10;101732.44;;;23.70
20490;BMP280;10403;54.092;12.122;2022-07-22T01:26:37;101729.75;;;23.70
20490;BMP280;10403;54.092;12.122;2022-07-22T01:29:07;101725.41;;;23.69
20490;BMP280;10403;54.092;12.122;2022-07-22T01:31:34;101726.25;;;23.70
20490;BMP280;10403;54.092;12.122;2022-07-22T01:34:01;101725.47;;;23.68
20490;BMP280;10403;54.092;12.122;2022-07-22T01:36:29;101722.00;;;23.66
20490;BMP280;10403;54.092;12.122;2022-07-22T01:38:56;101719.41;;;23.64
20490;BMP280;10403;54.092;12.122;2022-07-22T01:41:24;101717.69;;;23.63
20490;BMP280;10403;54.092;12.122;2022-07-22T01:43:51;101722.16;;;23.63
20490;BMP280;10403;54.092;12.122;2022-07-22T01:46:18;101716.81;;;23.63
20490;BMP280;10403;54.092;12.122;2022-07-22T01:48:46;101724.16;;;23.59
20490;BMP280;10403;54.092;12.122;2022-07-22T01:51:13;101728.44;;;23.61
20490;BMP280;10403;54.092;12.122;2022-07-22T01:53:40;101722.44;;;23.58
20490;BMP280;10403;54.092;12.122;2022-07-22T01:56:07;101729.72;;;23.54
20490;BMP280;10403;54.092;12.122;2022-07-22T01:58:34;101742.38;;;23.51
20490;BMP280;10403;54.092;12.122;2022-07-22T02:01:07;101728.16;;;23.50
20490;BMP280;10403;54.092;12.122;2022-07-22T02:03:35;101727.31;;;23.50
20490;BMP280;10403;54.092;12.122;2022-07-22T02:06:03;101721.09;;;23.49
20490;BMP280;10403;54.092;12.122;2022-07-22T02:08:30;101737.19;;;23.48
20490;BMP280;10403;54.092;12.122;2022-07-22T02:10:58;101727.50;;;23.45
20490;BMP280;10403;54.092;12.122;2022-07-22T02:13:25;101727.59;;;23.44
20490;BMP280;10403;54.092;12.122;2022-07-22T02:15:52;101726.03;;;23.40
20490;BMP280;10403;54.092;12.122;2022-07-22T02:18:20;101729.47;;;23.42
20490;BMP280;10403;54.092;12.122;2022-07-22T02:20:47;101733.06;;;23.41
20490;BMP280;10403;54.092;12.122;2022-07-22T02:23:14;101741.09;;;23.41
20490;BMP280;10403;54.092;12.122;2022-07-22T02:25:42;101745.50;;;23.42
20490;BMP280;10403;54.092;12.122;2022-07-22T02:28:09;101741.00;;;23.42
20490;BMP280;10403;54.092;12.122;2022-07-22T02:30:37;101744.47;;;23.44
20490;BMP280;10403;54.092;12.122;2022-07-22T02:33:04;101756.88;;;23.45
20490;BMP280;10403;54.092;12.122;2022-07-22T02:35:32;101743.59;;;23.44
20490;BMP280;10403;54.092;12.122;2022-07-22T02:37:59;101733.94;;;23.41
20490;BMP280;10403;54.092;12.122;2022-07-22T02:40:28;101736.72;;;23.40
20490;BMP280;10403;54.092;12.122;2022-07-22T02:42:55;101733.06;;;23.41
20490;BMP280;10403;54.092;12.122;2022-07-22T02:45:23;101725.84;;;23.43
20490;BMP280;10403;54.092;12.122;2022-07-22T02:47:53;101726.78;;;23.42
20490;BMP280;10403;54.092;12.122;2022-07-22T02:50:22;101732.06;;;23.43
20490;BMP280;10403;54.092;12.122;2022-07-22T02:52:50;101728.38;;;23.46
20490;BMP280;10403;54.092;12.122;2022-07-22T02:55:18;101738.28;;;23.44
20490;BMP280;10403;54.092;12.122;2022-07-22T02:57:45;101741.72;;;23.46
20490;BMP280;10403;54.092;12.122;2022-07-22T03:00:14;101740.00;;;23.45
20490;BMP280;10403;54.092;12.122;2022-07-22T03:02:41;101729.38;;;23.43
20490;BMP280;10403;54.092;12.122;2022-07-22T03:05:09;101740.84;;;23.45
20490;BMP280;10403;54.092;12.122;2022-07-22T03:07:36;101744.41;;;23.46
20490;BMP280;10403;54.092;12.122;2022-07-22T03:10:04;101746.13;;;23.47
20490;BMP280;10403;54.092;12.122;2022-07-22T03:12:31;101745.25;;;23.46
20490;BMP280;10403;54.092;12.122;2022-07-22T03:14:58;101740.72;;;23.48
20490;BMP280;10403;54.092;12.122;2022-07-22T03:17:25;101746.13;;;23.47
20490;BMP280;10403;54.092;12.122;2022-07-22T03:19:53;101747.94;;;23.46
20490;BMP280;10403;54.092;12.122;2022-07-22T03:22:20;101745.19;;;23.48
20490;BMP280;10403;54.092;12.122;2022-07-22T03:24:47;101739.81;;;23.49
20490;BMP280;10403;54.092;12.122;2022-07-22T03:27:14;101743.34;;;23.50
20490;BMP280;10403;54.092;12.122;2022-07-22T03:29:41;101738.00;;;23.50
20490;BMP280;10403;54.092;12.122;2022-07-22T03:32:08;101733.63;;;23.47
20490;BMP280;10403;54.092;12.122;2022-07-22T03:34:35;101743.22;;;23.51
20490;BMP280;10403;54.092;12.122;2022-07-22T03:37:02;101740.56;;;23.51
20490;BMP280;10403;54.092;12.122;2022-07-22T03:39:29;101742.38;;;23.51
20490;BMP280;10403;54.092;12.122;2022-07-22T03:41:58;101741.44;;;23.52
20490;BMP280;10403;54.092;12.122;2022-07-22T03:44:25;101738.75;;;23.52
20490;BMP280;10403;54.092;12.122;2022-07-22T03:46:52;101748.50;;;23.53
20490;BMP280;10403;54.092;12.122;2022-07-22T03:49:20;101746.78;;;23.52
20490;BMP280;10403;54.092;12.122;2022-07-22T03:51:47;101750.22;;;23.54
20490;BMP280;10403;54.092;12.122;2022-07-22T03:54:14;101746.63;;;23.55
20490;BMP280;10403;54.092;12.122;2022-07-22T03:56:41;101746.63;;;23.55
20490;BMP280;10403;54.092;12.122;2022-07-22T03:59:08;101747.50;;;23.55
20490;BMP280;10403;54.092;12.122;2022-07-22T04:01:35;101748.50;;;23.53
20490;BMP280;10403;54.092;12.122;2022-07-22T04:04:03;101749.44;;;23.52
20490;BMP280;10403;54.092;12.122;2022-07-22T04:06:30;101746.78;;;23.52
20490;BMP280;10403;54.092;12.122;2022-07-22T04:08:58;101743.34;;;23.50
20490;BMP280;10403;54.092;12.122;2022-07-22T04:11:27;101748.88;;;23.45
20490;BMP280;10403;54.092;12.122;2022-07-22T04:13:54;101736.72;;;23.40
20490;BMP280;10403;54.092;12.122;2022-07-22T04:16:21;101738.91;;;23.32
20490;BMP280;10403;54.092;12.122;2022-07-22T04:18:48;101749.03;;;23.25
20490;BMP280;10403;54.092;12.122;2022-07-22T04:21:15;101753.09;;;23.15
20490;BMP280;10403;54.092;12.122;2022-07-22T04:23:42;101751.28;;;22.98
20490;BMP280;10403;54.092;12.122;2022-07-22T04:26:10;101750.63;;;22.76
20490;BMP280;10403;54.092;12.122;2022-07-22T04:28:37;101747.75;;;22.62
20490;BMP280;10403;54.092;12.122;2022-07-22T04:31:05;101754.78;;;22.63
20490;BMP280;10403;54.092;12.122;2022-07-22T04:33:32;101751.28;;;22.62
20490;BMP280;10403;54.092;12.122;2022-07-22T04:35:59;101752.28;;;22.60
20490;BMP280;10403;54.092;12.122;2022-07-22T04:38:27;101754.22;;;22.56
20490;BMP280;10403;54.092;12.122;2022-07-22T04:40:56;101756.88;;;22.56
20490;BMP280;10403;54.092;12.122;2022-07-22T04:43:24;101761.34;;;22.56
20490;BMP280;10403;54.092;12.122;2022-07-22T04:45:51;101768.56;;;22.53
20490;BMP280;10403;54.092;12.122;2022-07-22T04:48:19;101752.50;;;22.36
20490;BMP280;10403;54.092;12.122;2022-07-22T04:50:46;101768.78;;;22.30
20490;BMP280;10403;54.092;12.122;2022-07-22T04:53:13;101766.25;;;22.27
20490;BMP280;10403;54.092;12.122;2022-07-22T04:55:41;101779.09;;;22.19
20490;BMP280;10403;54.092;12.122;2022-07-22T04:58:08;101775.13;;;22.09
20490;BMP280;10403;54.092;12.122;2022-07-22T05:00:43;101779.44;;;22.11
20490;BMP280;10403;54.092;12.122;2022-07-22T05:03:10;101768.91;;;22.08
20490;BMP280;10403;54.092;12.122;2022-07-22T05:05:37;101782.19;;;22.10
20490;BMP280;10403;54.092;12.122;2022-07-22T05:08:04;101778.72;;;22.08
20490;BMP280;10403;54.092;12.122;2022-07-22T05:10:31;101783.19;;;22.07
20490;BMP280;10403;54.092;12.122;2022-07-22T05:12:59;101764.94;;;21.98
20490;BMP280;10403;54.092;12.122;2022-07-22T05:15:26;101784.91;;;22.08
20490;BMP280;10403;54.092;12.122;2022-07-22T05:17:53;101789.44;;;22.06
20490;BMP280;10403;54.092;12.122;2022-07-22T05:20:20;101799.91;;;22.11
20490;BMP280;10403;54.092;12.122;2022-07-22T05:22:47;101789.50;;;22.05
20490;BMP280;10403;54.092;12.122;2022-07-22T05:25:15;101789.25;;;21.91
20490;BMP280;10403;54.092;12.122;2022-07-22T05:27:55;101792.16;;;21.85
20490;BMP280;10403;54.092;12.122;2022-07-22T05:30:22;101799.38;;;21.83
20490;BMP280;10403;54.092;12.122;2022-07-22T05:32:51;101805.63;;;21.82
20490;BMP280;10403;54.092;12.122;2022-07-22T05:35:19;101801.59;;;21.73
20490;BMP280;10403;54.092;12.122;2022-07-22T05:37:47;101812.28;;;21.71
20490;BMP280;10403;54.092;12.122;2022-07-22T05:40:14;101804.91;;;21.58
20490;BMP280;10403;54.092;12.122;2022-07-22T05:42:41;101816.00;;;21.47
20490;BMP280;10403;54.092;12.122;2022-07-22T05:45:09;101819.75;;;21.43
20490;BMP280;10403;54.092;12.122;2022-07-22T05:47:37;101817.06;;;21.43
20490;BMP280;10403;54.092;12.122;2022-07-22T05:50:05;101819.69;;;21.45
20490;BMP280;10403;54.092;12.122;2022-07-22T05:52:35;101818.94;;;21.41
20490;BMP280;10403;54.092;12.122;2022-07-22T05:55:03;101814.47;;;21.41
20490;BMP280;10403;54.092;12.122;2022-07-22T05:57:30;101833.91;;;21.44
20490;BMP280;10403;54.092;12.122;2022-07-22T05:59:57;101836.38;;;21.48
20490;BMP280;10403;54.092;12.122;2022-07-22T06:02:24;101828.25;;;21.51
20490;BMP280;10403;54.092;12.122;2022-07-22T06:04:51;101835.38;;;21.51
20490;BMP280;10403;54.092;12.122;2022-07-22T06:07:18;101839.72;;;21.53
20490;BMP280;10403;54.092;12.122;2022-07-22T06:09:46;101840.50;;;21.55
20490;BMP280;10403;54.092;12.122;2022-07-22T06:12:13;101831.66;;;21.55
20490;BMP280;10403;54.092;12.122;2022-07-22T06:14:40;101843.16;;;21.55
20490;BMP280;10403;54.092;12.122;2022-07-22T06:17:07;101840.59;;;21.54
20490;BMP280;10403;54.092;12.122;2022-07-22T06:19:34;101829.19;;;21.50
20490;BMP280;10403;54.092;12.122;2022-07-22T06:22:01;101838.00;;;21.52
20490;BMP280;10403;54.092;12.122;2022-07-22T06:24:28;101839.72;;;21.53
20490;BMP280;10403;54.092;12.122;2022-07-22T06:26:56;101842.22;;;21.56
20490;BMP280;10403;54.092;12.122;2022-07-22T06:29:23;101835.84;;;21.60
20490;BMP280;10403;54.092;12.122;2022-07-22T06:31:50;101836.59;;;21.64
20490;BMP280;10403;54.092;12.122;2022-07-22T06:34:17;101833.72;;;21.68
20490;BMP280;10403;54.092;12.122;2022-07-22T06:36:44;101840.59;;;21.74
20490;BMP280;10403;54.092;12.122;2022-07-22T06:39:11;101851.06;;;21.78
20490;BMP280;10403;54.092;12.122;2022-07-22T06:41:38;101845.59;;;21.82
20490;BMP280;10403;54.092;12.122;2022-07-22T06:44:06;101848.72;;;21.91
20490;BMP280;10403;54.092;12.122;2022-07-22T06:46:33;101848.44;;;21.97
20490;BMP280;10403;54.092;12.122;2022-07-22T06:49:00;101858.94;;;22.02
20490;BMP280;10403;54.092;12.122;2022-07-22T06:51:27;101857.22;;;22.01
20490;BMP280;10403;54.092;12.122;2022-07-22T06:53:54;101857.06;;;22.04
20490;BMP280;10403;54.092;12.122;2022-07-22T06:56:21;101856.00;;;22.08
20490;BMP280;10403;54.092;12.122;2022-07-22T06:58:49;101857.50;;;22.13
20490;BMP280;10403;54.092;12.122;2022-07-22T07:01:16;101854.66;;;22.18
20490;BMP280;10403;54.092;12.122;2022-07-22T07:06:11;101856.13;;;22.05
20490;BMP280;10403;54.092;12.122;2022-07-22T07:08:40;101855.19;;;22.06
20490;BMP280;10403;54.092;12.122;2022-07-22T07:11:07;101858.66;;;22.08
20490;BMP280;10403;54.092;12.122;2022-07-22T07:13:35;101854.94;;;22.12
20490;BMP280;10403;54.092;12.122;2022-07-22T07:16:02;101851.25;;;22.14
20490;BMP280;10403;54.092;12.122;2022-07-22T07:18:29;101858.38;;;22.14
20490;BMP280;10403;54.092;12.122;2022-07-22T07:25:51;101862.59;;;22.20
20490;BMP280;10403;54.092;12.122;2022-07-22T07:28:20;101855.97;;;22.28
20490;BMP280;10403;54.092;12.122;2022-07-22T07:30:47;101857.34;;;22.37
20490;BMP280;10403;54.092;12.122;2022-07-22T07:33:15;101859.72;;;22.43
20490;BMP280;10403;54.092;12.122;2022-07-22T07:35:42;101847.13;;;22.46
20490;BMP280;10403;54.092;12.122;2022-07-22T07:38:10;101857.50;;;22.52
20490;BMP280;10403;54.092;12.122;2022-07-22T07:40:37;101861.13;;;22.51
20490;BMP280;10403;54.092;12.122;2022-07-22T07:43:04;101850.81;;;22.44
20490;BMP280;10403;54.092;12.122;2022-07-22T07:45:31;101846.81;;;22.34
20490;BMP280;10403;54.092;12.122;2022-07-22T07:48:00;101848.84;;;22.29
20490;BMP280;10403;54.092;12.122;2022-07-22T07:50:29;101857.84;;;22.26
20490;BMP280;10403;54.092;12.122;2022-07-22T07:52:58;101856.25;;;22.22
20490;BMP280;10403;54.092;12.122;2022-07-22T07:55:25;101865.31;;;22.18
20490;BMP280;10403;54.092;12.122;2022-07-22T07:57:53;101877.72;;;22.19
20490;BMP280;10403;54.092;12.122;2022-07-22T08:00:24;101878.25;;;22.27
20490;BMP280;10403;54.092;12.122;2022-07-22T08:02:56;101885.88;;;22.35
20490;BMP280;10403;54.092;12.122;2022-07-22T08:05:25;101886.28;;;22.46
20490;BMP280;10403;54.092;12.122;2022-07-22T08:07:53;101890.31;;;22.55
20490;BMP280;10403;54.092;12.122;2022-07-22T08:10:21;101887.31;;;22.62
20490;BMP280;10403;54.092;12.122;2022-07-22T08:13:09;101874.81;;;22.63
20490;BMP280;10403;54.092;12.122;2022-07-22T08:15:37;101887.56;;;22.76
20490;BMP280;10403;54.092;12.122;2022-07-22T08:18:05;101890.78;;;22.83
20490;BMP280;10403;54.092;12.122;2022-07-22T08:20:33;101889.78;;;22.85
20490;BMP280;10403;54.092;12.122;2022-07-22T08:23:01;101892.69;;;22.81
20490;BMP280;10403;54.092;12.122;2022-07-22T08:25:28;101887.88;;;22.69
20490;BMP280;10403;54.092;12.122;2022-07-22T08:27:56;101896.38;;;22.58
20490;BMP280;10403;54.092;12.122;2022-07-22T08:30:24;101893.03;;;22.53
20490;BMP280;10403;54.092;12.122;2022-07-22T08:32:55;101900.53;;;22.45
20490;BMP280;10403;54.092;12.122;2022-07-22T08:35:22;101899.66;;;22.44
20490;BMP280;10403;54.092;12.122;2022-07-22T08:37:50;101899.59;;;22.46
20490;BMP280;10403;54.092;12.122;2022-07-22T08:40:17;101897.69;;;22.49
20490;BMP280;10403;54.092;12.122;2022-07-22T08:42:47;101879.94;;;22.48
20490;BMP280;10403;54.092;12.122;2022-07-22T08:45:16;101887.94;;;22.48
20490;BMP280;10403;54.092;12.122;2022-07-22T08:47:48;101900.28;;;22.51
20490;BMP280;10403;54.092;12.122;2022-07-22T08:50:16;101911.00;;;22.49
20490;BMP280;10403;54.092;12.122;2022-07-22T08:52:44;101917.41;;;22.45
20490;BMP280;10403;54.092;12.122;2022-07-22T08:55:11;101906.22;;;22.37
20490;BMP280;10403;54.092;12.122;2022-07-22T08:57:45;101913.41;;;22.35
20490;BMP280;10403;54.092;12.122;2022-07-22T09:00:19;101910.09;;;22.30
20490;BMP280;10403;54.092;12.122;2022-07-22T09:02:48;101911.84;;;22.31
20490;BMP280;10403;54.092;12.122;2022-07-22T09:05:17;101910.91;;;22.32
20490;BMP280;10403;54.092;12.122;2022-07-22T09:08:13;101914.50;;;22.31
20490;BMP280;10403;54.092;12.122;2022-07-22T09:10:41;101912.78;;;22.30
20490;BMP280;10403;54.092;12.122;2022-07-22T09:13:10;101915.38;;;22.32
20490;BMP280;10403;54.092;12.122;2022-07-22T09:15:46;101915.22;;;22.35
20490;BMP280;10403;54.092;12.122;2022-07-22T09:18:13;101912.50;;;22.36
20490;BMP280;10403;54.092;12.122;2022-07-22T09:20:40;101918.41;;;22.43
20490;BMP280;10403;54.092;12.122;2022-07-22T09:23:12;101914.81;;;22.44
20490;BMP280;10403;54.092;12.122;2022-07-22T09:25:40;101930.75;;;22.45
20490;BMP280;10403;54.092;12.122;2022-07-22T09:30:51;101930.69;;;22.47
20490;BMP280;10403;54.092;12.122;2022-07-22T09:33:22;101929.63;;;22.51
20490;BMP280;10403;54.092;12.122;2022-07-22T09:35:51;101926.84;;;22.52
20490;BMP280;10403;54.092;12.122;2022-07-22T09:38:28;101931.41;;;22.50
20490;BMP280;10403;54.092;12.122;2022-07-22T09:40:58;101929.75;;;22.48
20490;BMP280;10403;54.092;12.122;2022-07-22T09:43:25;101928.88;;;22.47
20490;BMP280;10403;54.092;12.122;2022-07-22T09:46:00;101927.81;;;22.51
20490;BMP280;10403;54.092;12.122;2022-07-22T09:48:27;101934.94;;;22.51
20490;BMP280;10403;54.092;12.122;2022-07-22T09:50:57;101934.94;;;22.51
20490;BMP280;10403;54.092;12.122;2022-07-22T09:53:27;101936.75;;;22.50
20490;BMP280;10403;54.092;12.122;2022-07-22T09:55:57;101939.47;;;22.49
20490;BMP280;10403;54.092;12.122;2022-07-22T09:58:26;101942.09;;;22.50
20490;BMP280;10403;54.092;12.122;2022-07-22T10:00:58;101936.59;;;22.53
20490;BMP280;10403;54.092;12.122;2022-07-22T10:03:29;101939.94;;;22.59
20490;BMP280;10403;54.092;12.122;2022-07-22T10:05:58;101934.31;;;22.65
20490;BMP280;10403;54.092;12.122;2022-07-22T10:08:27;101927.84;;;22.70
20490;BMP280;10403;54.092;12.122;2022-07-22T10:11:00;101933.50;;;22.83
20490;BMP280;10403;54.092;12.122;2022-07-22T10:13:29;101932.06;;;22.95
20490;BMP280;10403;54.092;12.122;2022-07-22T10:15:57;101924.91;;;22.95
20490;BMP280;10403;54.092;12.122;2022-07-22T10:18:26;101930.41;;;23.11
20490;BMP280;10403;54.092;12.122;2022-07-22T10:21:08;101934.53;;;23.18
20490;BMP280;10403;54.092;12.122;2022-07-22T10:24:15;101939.09;;;23.33
20490;BMP280;10403;54.092;12.122;2022-07-22T10:26:53;101927.41;;;23.36
20490;BMP280;10403;54.092;12.122;2022-07-22T10:29:41;101927.41;;;23.36
20490;BMP280;10403;54.092;12.122;2022-07-22T10:40:20;101928.38;;;23.71
20490;BMP280;10403;54.092;12.122;2022-07-22T10:45:35;101927.50;;;23.70
20490;BMP280;10403;54.092;12.122;2022-07-22T10:48:16;101931.38;;;23.82
20490;BMP280;10403;54.092;12.122;2022-07-22T10:50:53;101932.88;;;23.87
20490;BMP280;10403;54.092;12.122;2022-07-22T10:56:25;101930.81;;;23.92
20490;BMP280;10403;54.092;12.122;2022-07-22T10:59:14;101927.28;;;23.92
20490;BMP280;10403;54.092;12.122;2022-07-22T11:01:47;101929.88;;;23.93
20490;BMP280;10403;54.092;12.122;2022-07-22T11:06:51;101918.25;;;23.94
20490;BMP280;10403;54.092;12.122;2022-07-22T11:09:21;101929.94;;;24.09
20490;BMP280;10403;54.092;12.122;2022-07-22T11:11:52;101930.53;;;24.16
20490;BMP280;10403;54.092;12.122;2022-07-22T11:14:34;101926.84;;;24.18
20490;BMP280;10403;54.092;12.122;2022-07-22T11:17:11;101924.66;;;24.26
20490;BMP280;10403;54.092;12.122;2022-07-22T11:19:41;101925.97;;;24.35
20490;BMP280;10403;54.092;12.122;2022-07-22T11:22:11;101921.06;;;24.43
20490;BMP280;10403;54.092;12.122;2022-07-22T11:24:40;101917.19;;;24.49
20490;BMP280;10403;54.092;12.122;2022-07-22T11:27:16;101918.53;;;24.57
20490;BMP280;10403;54.092;12.122;2022-07-22T11:29:49;101920.56;;;24.52
20490;BMP280;10403;54.092;12.122;2022-07-22T11:32:19;101932.56;;;24.45
20490;BMP280;10403;54.092;12.122;2022-07-22T11:34:51;101919.03;;;24.31
20490;BMP280;10403;54.092;12.122;2022-07-22T11:37:22;101909.72;;;24.21
20490;BMP280;10403;54.092;12.122;2022-07-22T11:40:07;101911.34;;;24.25
20490;BMP280;10403;54.092;12.122;2022-07-22T11:42:34;101913.69;;;24.31
20490;BMP280;10403;54.092;12.122;2022-07-22T11:45:02;101914.94;;;24.41
20490;BMP280;10403;54.092;12.122;2022-07-22T11:47:30;101909.34;;;24.46
20490;BMP280;10403;54.092;12.122;2022-07-22T11:49:57;101921.00;;;24.45
20490;BMP280;10403;54.092;12.122;2022-07-22T11:52:24;101916.50;;;24.45
20490;BMP280;10403;54.092;12.122;2022-07-22T11:54:51;101914.63;;;24.47
20490;BMP280;10403;54.092;12.122;2022-07-22T11:57:18;101915.38;;;24.49
20490;BMP280;10403;54.092;12.122;2022-07-22T11:59:45;101920.66;;;24.51
20490;BMP280;10403;54.092;12.122;2022-07-22T12:02:13;101923.25;;;24.52
20490;BMP280;10403;54.092;12.122;2022-07-22T12:04:42;101918.47;;;24.42
20490;BMP280;10403;54.092;12.122;2022-07-22T12:07:12;101922.50;;;24.33
20490;BMP280;10403;54.092;12.122;2022-07-22T12:09:41;101925.09;;;24.34
20490;BMP280;10403;54.092;12.122;2022-07-22T12:12:09;101922.34;;;24.36
20490;BMP280;10403;54.092;12.122;2022-07-22T12:14:45;101919.34;;;24.42
20490;BMP280;10403;54.092;12.122;2022-07-22T12:17:15;101926.88;;;24.51
20490;BMP280;10403;54.092;12.122;2022-07-22T12:19:42;101922.59;;;24.64
20490;BMP280;10403;54.092;12.122;2022-07-22T12:22:18;101914.72;;;24.61
20490;BMP280;10403;54.092;12.122;2022-07-22T12:24:58;101918.69;;;24.54
20490;BMP280;10403;54.092;12.122;2022-07-22T12:27:26;101921.22;;;24.57
20490;BMP280;10403;54.092;12.122;2022-07-22T12:29:53;101919.13;;;24.62
20490;BMP280;10403;54.092;12.122;2022-07-22T12:35:02;101921.59;;;24.83
20490;BMP280;10403;54.092;12.122;2022-07-22T12:37:34;101915.59;;;24.95
20490;BMP280;10403;54.092;12.122;2022-07-22T12:40:27;101914.72;;;25.10
20490;BMP280;10403;54.092;12.122;2022-07-22T12:43:08;101908.06;;;25.17
20490;BMP280;10403;54.092;12.122;2022-07-22T12:45:38;101908.16;;;25.16
20490;BMP280;10403;54.092;12.122;2022-07-22T12:48:09;101911.59;;;25.18
20490;BMP280;10403;54.092;12.122;2022-07-22T12:50:42;101906.06;;;25.21
20490;BMP280;10403;54.092;12.122;2022-07-22T12:53:15;101892.59;;;25.22
20490;BMP280;10403;54.092;12.122;2022-07-22T12:55:50;101890.97;;;25.20
20490;BMP280;10403;54.092;12.122;2022-07-22T12:58:28;101902.78;;;25.31
20490;BMP280;10403;54.092;12.122;2022-07-22T13:00:59;101886.72;;;25.31
20490;BMP280;10403;54.092;12.122;2022-07-22T13:03:27;101904.88;;;25.26
20490;BMP280;10403;54.092;12.122;2022-07-22T13:06:00;101902.97;;;25.13
20490;BMP280;10403;54.092;12.122;2022-07-22T13:08:29;101895.38;;;25.05
20490;BMP280;10403;54.092;12.122;2022-07-22T13:11:12;101902.47;;;25.06
20490;BMP280;10403;54.092;12.122;2022-07-22T13:13:40;101899.69;;;25.07
20490;BMP280;10403;54.092;12.122;2022-07-22T13:16:10;101909.44;;;25.08
20490;BMP280;10403;54.092;12.122;2022-07-22T13:18:38;101903.34;;;25.06
20490;BMP280;10403;54.092;12.122;2022-07-22T13:21:05;101898.16;;;25.03
20490;BMP280;10403;54.092;12.122;2022-07-22T13:23:32;101900.03;;;25.01
20490;BMP280;10403;54.092;12.122;2022-07-22T13:25:59;101894.53;;;25.04
20490;BMP280;10403;54.092;12.122;2022-07-22T13:28:26;101904.53;;;25.01
20490;BMP280;10403;54.092;12.122;2022-07-22T13:30:54;101903.94;;;24.79
20490;BMP280;10403;54.092;12.122;2022-07-22T13:33:22;101905.16;;;24.57
20490;BMP280;10403;54.092;12.122;2022-07-22T13:35:49;101893.22;;;24.47
20490;BMP280;10403;54.092;12.122;2022-07-22T13:38:16;101900.09;;;24.51
20490;BMP280;10403;54.092;12.122;2022-07-22T13:40:44;101901.69;;;24.55
20490;BMP280;10403;54.092;12.122;2022-07-22T13:43:21;101897.34;;;24.53
20490;BMP280;10403;54.092;12.122;2022-07-22T13:45:51;101897.81;;;24.61
20490;BMP280;10403;54.092;12.122;2022-07-22T13:48:18;101905.41;;;24.68
20490;BMP280;10403;54.092;12.122;2022-07-22T13:50:47;101899.97;;;24.70
20490;BMP280;10403;54.092;12.122;2022-07-22T13:53:14;101917.19;;;24.82
20490;BMP280;10403;54.092;12.122;2022-07-22T13:55:42;101901.13;;;24.82
20490;BMP280;10403;54.092;12.122;2022-07-22T13:58:09;101906.22;;;24.86
20490;BMP280;10403;54.092;12.122;2022-07-22T14:00:36;101904.13;;;24.91
20490;BMP280;10403;54.092;12.122;2022-07-22T14:03:05;101909.88;;;25.01
20490;BMP280;10403;54.092;12.122;2022-07-22T14:05:33;101902.28;;;25.09
20490;BMP280;10403;54.092;12.122;2022-07-22T14:08:00;101897.47;;;25.16
20490;BMP280;10403;54.092;12.122;2022-07-22T14:10:28;101898.13;;;25.19
20490;BMP280;10403;54.092;12.122;2022-07-22T14:12:56;101893.38;;;25.24
20490;BMP280;10403;54.092;12.122;2022-07-22T14:15:23;101887.41;;;25.19
20490;BMP280;10403;54.092;12.122;2022-07-22T14:17:50;101899.94;;;25.19
20490;BMP280;10403;54.092;12.122;2022-07-22T14:20:17;101894.66;;;25.17
20490;BMP280;10403;54.092;12.122;2022-07-22T14:22:44;101890.91;;;25.05